sensor_id;sensor_type;location;lat;lon;timestamp;pressure;altitude;pressure_sealevel;temperature;humidity
41040;BME280;48586;50.122;18.972;2023-01-30T00:00:18;98714.56;;;-2.72;55.16
41040;BME280;48586;50.122;18.972;2023-01-30T00:02:23;98713.22;;;-2.76;54.83
41040;BME280;48586;50.122;18.972;2023-01-30T00:04:28;98700.75;;;-2.83;55.09
41040;BME280;48586;50.122;18.972;2023-01-30T00:06:32;98701.44;;;-2.81;54.92
41040;BME280;48586;50.122;18.972;2023-01-30T00:08:36;98698.69;;;-2.79;55.20
41040;BME280;48586;50.122;18.972;2023-01-30T00:10:44;98687.72;;;-2.83;55.11
41040;BME280;48586;50.122;18.972;2023-01-30T00:12:49;98691.16;;;-2.82;54.94
41040;BME280;48586;50.122;18.972;2023-01-30T00:14:53;98690.78;;;-2.97;55.23
41040;BME280;48586;50.122;18.972;2023-01-30T00:16:58;98682.81;;;-2.95;55.18
41040;BME280;48586;50.122;18.972;2023-01-30T00:19:02;98676.22;;;-2.90;55.40
41040;BME280;48586;50.122;18.972;2023-01-30T00:21:08;98673.75;;;-2.91;55.97
41040;BME280;48586;50.122;18.972;2023-01-30T00:23:15;98665.50;;;-2.87;55.40
41040;BME280;48586;50.122;18.972;2023-01-30T00:25:19;98664.16;;;-2.91;55.34
41040;BME280;48586;50.122;18.972;2023-01-30T00:27:26;98656.72;;;-2.86;55.45
41040;BME280;48586;50.122;18.972;2023-01-30T00:29:30;98647.66;;;-2.82;55.30
41040;BME280;48586;50.122;18.972;2023-01-30T00:31:36;98651.91;;;-2.81;55.28
41040;BME280;48586;50.122;18.972;2023-01-30T00:33:40;98647.13;;;-2.85;55.04
41040;BME280;48586;50.122;18.972;2023-01-30T00:35:47;98649.59;;;-2.93;55.46
41040;BME280;48586;50.122;18.972;2023-01-30T00:37:53;98639.19;;;-2.93;55.76
41040;BME280;48586;50.122;18.972;2023-01-30T00:39:59;98630.44;;;-3.02;56.08
41040;BME280;48586;50.122;18.972;2023-01-30T00:42:04;98632.25;;;-3.12;56.30
41040;BME280;48586;50.122;18.972;2023-01-30T00:44:24;98631.91;;;-3.27;56.71
41040;BME280;48586;50.122;18.972;2023-01-30T00:46:42;98636.44;;;-3.39;57.11
41040;BME280;48586;50.122;18.972;2023-01-30T00:49:01;98632.19;;;-3.40;57.16
41040;BME280;48586;50.122;18.972;2023-01-30T00:51:05;98613.41;;;-3.43;57.44
41040;BME280;48586;50.122;18.972;2023-01-30T00:53:10;98616.84;;;-3.43;57.53
41040;BME280;48586;50.122;18.972;2023-01-30T00:55:15;98609.59;;;-3.49;57.62
41040;BME280;48586;50.122;18.972;2023-01-30T00:57:20;98609.59;;;-3.49;57.98
41040;BME280;48586;50.122;18.972;2023-01-30T00:59:28;98610.44;;;-3.68;58.30
41040;BME280;48586;50.122;18.972;2023-01-30T01:01:33;98613.31;;;-3.71;58.46
41040;BME280;48586;50.122;18.972;2023-01-30T01:03:37;98609.22;;;-3.73;58.49
41040;BME280;48586;50.122;18.972;2023-01-30T01:05:42;98602.06;;;-3.71;58.52
41040;BME280;48586;50.122;18.972;2023-01-30T01:07:49;98588.13;;;-3.70;58.40
41040;BME280;48586;50.122;18.972;2023-01-30T01:09:53;98596.59;;;-3.68;58.52
41040;BME280;48586;50.122;18.972;2023-01-30T01:11:57;98591.41;;;-3.78;58.78
41040;BME280;48586;50.122;18.972;2023-01-30T01:14:04;98594.13;;;-3.79;58.94
41040;BME280;48586;50.122;18.972;2023-01-30T01:16:12;98573.31;;;-3.89;58.78
41040;BME280;48586;50.122;18.972;2023-01-30T01:18:17;98564.56;;;-3.98;59.21
41040;BME280;48586;50.122;18.972;2023-01-30T01:20:22;98555.38;;;-4.02;59.44
41040;BME280;48586;50.122;18.972;2023-01-30T01:22:26;98564.56;;;-4.08;59.55
41040;BME280;48586;50.122;18.972;2023-01-30T01:24:30;98557.72;;;-4.18;60.11
41040;BME280;48586;50.122;18.972;2023-01-30T01:26:36;98562.25;;;-4.20;60.07
41040;BME280;48586;50.122;18.972;2023-01-30T01:28:42;98560.47;;;-4.20;60.50
41040;BME280;48586;50.122;18.972;2023-01-30T01:30:46;98557.19;;;-4.22;60.71
41040;BME280;48586;50.122;18.972;2023-01-30T01:32:53;98558.00;;;-4.21;61.08
41040;BME280;48586;50.122;18.972;2023-01-30T01:34:59;98548.00;;;-4.16;61.21
41040;BME280;48586;50.122;18.972;2023-01-30T01:37:03;98530.63;;;-4.16;61.38
41040;BME280;48586;50.122;18.972;2023-01-30T01:39:08;98539.13;;;-4.14;61.69
41040;BME280;48586;50.122;18.972;2023-01-30T01:41:15;98532.53;;;-4.08;61.64
41040;BME280;48586;50.122;18.972;2023-01-30T01:43:20;98537.47;;;-4.05;61.53
41040;BME280;48586;50.122;18.972;2023-01-30T01:45:28;98541.41;;;-4.01;61.63
41040;BME280;48586;50.122;18.972;2023-01-30T01:47:34;98533.91;;;-4.04;62.09
41040;BME280;48586;50.122;18.972;2023-01-30T01:49:41;98515.53;;;-4.02;61.67
41040;BME280;48586;50.122;18.972;2023-01-30T01:51:53;98515.28;;;-3.99;61.85
41040;BME280;48586;50.122;18.972;2023-01-30T01:54:08;98506.38;;;-4.07;62.17
41040;BME280;48586;50.122;18.972;2023-01-30T01:56:18;98493.34;;;-3.97;61.92
41040;BME280;48586;50.122;18.972;2023-01-30T01:58:30;98486.22;;;-3.95;62.00
41040;BME280;48586;50.122;18.972;2023-01-30T02:00:40;98468.13;;;-3.87;61.70
41040;BME280;48586;50.122;18.972;2023-01-30T02:02:50;98469.38;;;-3.91;61.86
41040;BME280;48586;50.122;18.972;2023-01-30T02:05:04;98447.88;;;-3.93;62.01
41040;BME280;48586;50.122;18.972;2023-01-30T02:07:11;98439.25;;;-3.93;61.84
41040;BME280;48586;50.122;18.972;2023-01-30T02:09:17;98433.09;;;-4.02;62.00
41040;BME280;48586;50.122;18.972;2023-01-30T02:11:29;98430.22;;;-3.99;62.07
41040;BME280;48586;50.122;18.972;2023-01-30T02:13:39;98435.28;;;-3.97;62.05
41040;BME280;48586;50.122;18.972;2023-01-30T02:15:44;98416.13;;;-3.96;62.15
41040;BME280;48586;50.122;18.972;2023-01-30T02:17:49;98424.19;;;-3.90;62.21
41040;BME280;48586;50.122;18.972;2023-01-30T02:20:03;98423.78;;;-3.95;62.40
41040;BME280;48586;50.122;18.972;2023-01-30T02:22:35;98420.75;;;-3.90;62.06
41040;BME280;48586;50.122;18.972;2023-01-30T02:25:24;98416.53;;;-3.91;62.15
41040;BME280;48586;50.122;18.972;2023-01-30T02:28:15;98407.31;;;-3.86;61.89
41040;BME280;48586;50.122;18.972;2023-01-30T02:31:01;98411.94;;;-3.79;61.85
41040;BME280;48586;50.122;18.972;2023-01-30T02:33:21;98406.66;;;-3.88;61.95
41040;BME280;48586;50.122;18.972;2023-01-30T02:35:48;98399.34;;;-3.84;61.78
41040;BME280;48586;50.122;18.972;2023-01-30T02:38:22;98394.47;;;-3.87;61.95
41040;BME280;48586;50.122;18.972;2023-01-30T02:40:51;98390.88;;;-3.86;61.95
41040;BME280;48586;50.122;18.972;2023-01-30T02:43:23;98395.94;;;-3.85;61.81
41040;BME280;48586;50.122;18.972;2023-01-30T02:45:42;98397.19;;;-3.89;61.78
41040;BME280;48586;50.122;18.972;2023-01-30T02:48:03;98388.38;;;-3.78;61.51
41040;BME280;48586;50.122;18.972;2023-01-30T02:50:15;98371.97;;;-3.78;61.73
41040;BME280;48586;50.122;18.972;2023-01-30T02:52:28;98386.97;;;-3.72;61.52
41040;BME280;48586;50.122;18.972;2023-01-30T02:54:35;98379.03;;;-3.71;61.56
41040;BME280;48586;50.122;18.972;2023-01-30T02:56:45;98365.34;;;-3.73;61.60
41040;BME280;48586;50.122;18.972;2023-01-30T02:58:57;98361.50;;;-3.69;61.18
41040;BME280;48586;50.122;18.972;2023-01-30T03:01:34;98377.81;;;-3.76;61.42
41040;BME280;48586;50.122;18.972;2023-01-30T03:04:32;98372.25;;;-3.82;61.45
41040;BME280;48586;50.122;18.972;2023-01-30T03:07:11;98371.53;;;-3.74;61.21
41040;BME280;48586;50.122;18.972;2023-01-30T03:09:36;98372.44;;;-3.65;61.33
41040;BME280;48586;50.122;18.972;2023-01-30T03:12:00;98367.78;;;-3.62;61.09
41040;BME280;48586;50.122;18.972;2023-01-30T03:14:20;98385.34;;;-3.73;60.97
41040;BME280;48586;50.122;18.972;2023-01-30T03:16:34;98361.50;;;-3.69;61.06
41040;BME280;48586;50.122;18.972;2023-01-30T03:18:42;98366.97;;;-3.72;60.91
41040;BME280;48586;50.122;18.972;2023-01-30T03:20:53;98365.97;;;-3.61;61.28
41040;BME280;48586;50.122;18.972;2023-01-30T03:23:03;98348.91;;;-3.73;60.96
41040;BME280;48586;50.122;18.972;2023-01-30T03:25:15;98346.09;;;-3.62;60.87
41040;BME280;48586;50.122;18.972;2023-01-30T03:27:23;98361.31;;;-3.58;60.67
41040;BME280;48586;50.122;18.972;2023-01-30T03:29:28;98363.91;;;-3.58;60.54
41040;BME280;48586;50.122;18.972;2023-01-30T03:31:34;98351.72;;;-3.57;60.13
41040;BME280;48586;50.122;18.972;2023-01-30T03:33:39;98341.78;;;-3.53;60.24
41040;BME280;48586;50.122;18.972;2023-01-30T03:35:44;98350.38;;;-3.61;60.39
41040;BME280;48586;50.122;18.972;2023-01-30T03:37:52;98351.03;;;-3.59;60.25
41040;BME280;48586;50.122;18.972;2023-01-30T03:39:58;98345.34;;;-3.72;60.69
41040;BME280;48586;50.122;18.972;2023-01-30T03:42:03;98339.16;;;-3.71;60.70
41040;BME280;48586;50.122;18.972;2023-01-30T03:44:09;98340.88;;;-3.62;60.25
41040;BME280;48586;50.122;18.972;2023-01-30T03:46:16;98335.69;;;-3.62;60.44
41040;BME280;48586;50.122;18.972;2023-01-30T03:48:22;98333.16;;;-3.54;59.74
41040;BME280;48586;50.122;18.972;2023-01-30T03:50:28;98319.06;;;-3.51;59.65
41040;BME280;48586;50.122;18.972;2023-01-30T03:52:34;98335.66;;;-3.52;59.70
41040;BME280;48586;50.122;18.972;2023-01-30T03:54:46;98324.84;;;-3.58;59.86
41040;BME280;48586;50.122;18.972;2023-01-30T03:56:51;98309.72;;;-3.54;59.88
41040;BME280;48586;50.122;18.972;2023-01-30T03:58:55;98314.91;;;-3.44;59.96
41040;BME280;48586;50.122;18.972;2023-01-30T04:01:08;98302.78;;;-3.36;59.63
41040;BME280;48586;50.122;18.972;2023-01-30T04:03:13;98312.06;;;-3.33;59.13
41040;BME280;48586;50.122;18.972;2023-01-30T04:05:17;98298.84;;;-3.40;59.29
41040;BME280;48586;50.122;18.972;2023-01-30T04:07:29;98314.00;;;-3.53;59.23
41040;BME280;48586;50.122;18.972;2023-01-30T04:09:34;98300.75;;;-3.42;59.53
41040;BME280;48586;50.122;18.972;2023-01-30T04:11:40;98302.00;;;-3.46;59.31
41040;BME280;48586;50.122;18.972;2023-01-30T04:13:45;98280.19;;;-3.45;59.58
41040;BME280;48586;50.122;18.972;2023-01-30T04:15:49;98288.63;;;-3.33;59.23
41040;BME280;48586;50.122;18.972;2023-01-30T04:17:59;98293.84;;;-3.33;58.88
41040;BME280;48586;50.122;18.972;2023-01-30T04:20:04;98290.22;;;-3.40;59.05
41040;BME280;48586;50.122;18.972;2023-01-30T04:22:12;98276.66;;;-3.44;59.26
41040;BME280;48586;50.122;18.972;2023-01-30T04:24:16;98277.56;;;-3.35;59.26
41040;BME280;48586;50.122;18.972;2023-01-30T04:26:20;98266.31;;;-3.36;59.14
41040;BME280;48586;50.122;18.972;2023-01-30T04:28:27;98256.56;;;-3.34;58.83
41040;BME280;48586;50.122;18.972;2023-01-30T04:30:31;98250.69;;;-3.36;58.86
41040;BME280;48586;50.122;18.972;2023-01-30T04:33:01;98244.25;;;-3.23;59.01
41040;BME280;48586;50.122;18.972;2023-01-30T04:35:07;98249.09;;;-3.28;58.90
41040;BME280;48586;50.122;18.972;2023-01-30T04:37:12;98261.47;;;-3.31;58.50
41040;BME280;48586;50.122;18.972;2023-01-30T04:39:17;98255.81;;;-3.26;58.80
41040;BME280;48586;50.122;18.972;2023-01-30T04:41:22;98260.03;;;-3.25;58.73
41040;BME280;48586;50.122;18.972;2023-01-30T04:43:34;98252.97;;;-3.33;58.53
41040;BME280;48586;50.122;18.972;2023-01-30T04:46:13;98242.94;;;-3.27;58.56
41040;BME280;48586;50.122;18.972;2023-01-30T04:48:19;98250.59;;;-3.26;58.33
41040;BME280;48586;50.122;18.972;2023-01-30T04:50:24;98259.97;;;-3.33;58.64
41040;BME280;48586;50.122;18.972;2023-01-30T04:52:29;98249.72;;;-3.35;58.69
41040;BME280;48586;50.122;18.972;2023-01-30T04:54:34;98249.44;;;-3.32;58.72
41040;BME280;48586;50.122;18.972;2023-01-30T04:56:38;98256.78;;;-3.27;58.79
41040;BME280;48586;50.122;18.972;2023-01-30T04:58:45;98253.56;;;-3.21;58.62
41040;BME280;48586;50.122;18.972;2023-01-30T05:00:50;98240.72;;;-3.22;58.48
41040;BME280;48586;50.122;18.972;2023-01-30T05:02:54;98232.72;;;-3.21;58.15
41040;BME280;48586;50.122;18.972;2023-01-30T05:05:00;98227.75;;;-3.14;58.28
41040;BME280;48586;50.122;18.972;2023-01-30T05:07:05;98225.06;;;-3.22;58.21
41040;BME280;48586;50.122;18.972;2023-01-30T05:09:09;98220.00;;;-3.24;58.19
41040;BME280;48586;50.122;18.972;2023-01-30T05:11:13;98212.06;;;-3.22;57.97
41040;BME280;48586;50.122;18.972;2023-01-30T05:13:17;98200.50;;;-3.20;58.03
41040;BME280;48586;50.122;18.972;2023-01-30T05:15:24;98200.19;;;-3.17;57.97
41040;BME280;48586;50.122;18.972;2023-01-30T05:17:28;98204.75;;;-3.37;58.32
41040;BME280;48586;50.122;18.972;2023-01-30T05:19:33;98203.31;;;-3.13;58.03
41040;BME280;48586;50.122;18.972;2023-01-30T05:21:37;98198.41;;;-3.16;57.84
41040;BME280;48586;50.122;18.972;2023-01-30T05:23:41;98223.88;;;-3.10;57.61
41040;BME280;48586;50.122;18.972;2023-01-30T05:25:46;98203.78;;;-3.18;57.74
41040;BME280;48586;50.122;18.972;2023-01-30T05:27:50;98196.72;;;-3.25;57.74
41040;BME280;48586;50.122;18.972;2023-01-30T05:29:54;98198.56;;;-3.18;57.88
41040;BME280;48586;50.122;18.972;2023-01-30T05:32:02;98179.56;;;-3.10;57.64
41040;BME280;48586;50.122;18.972;2023-01-30T05:34:10;98179.19;;;-3.15;57.24
41040;BME280;48586;50.122;18.972;2023-01-30T05:36:16;98179.06;;;-3.14;57.17
41040;BME280;48586;50.122;18.972;2023-01-30T05:38:23;98165.41;;;-3.08;57.28
41040;BME280;48586;50.122;18.972;2023-01-30T05:40:28;98156.81;;;-3.00;57.20
41040;BME280;48586;50.122;18.972;2023-01-30T05:42:32;98150.03;;;-2.93;56.66
41040;BME280;48586;50.122;18.972;2023-01-30T05:44:37;98149.56;;;-2.88;56.52
41040;BME280;48586;50.122;18.972;2023-01-30T05:46:41;98132.75;;;-2.94;56.44
41040;BME280;48586;50.122;18.972;2023-01-30T05:48:47;98150.94;;;-3.02;56.69
41040;BME280;48586;50.122;18.972;2023-01-30T05:50:54;98146.88;;;-3.04;56.76
41040;BME280;48586;50.122;18.972;2023-01-30T05:53:00;98138.13;;;-2.95;56.81
41040;BME280;48586;50.122;18.972;2023-01-30T05:55:05;98147.56;;;-2.94;56.56
41040;BME280;48586;50.122;18.972;2023-01-30T05:57:11;98131.63;;;-2.91;56.33
41040;BME280;48586;50.122;18.972;2023-01-30T05:59:17;98103.00;;;-2.83;56.69
41040;BME280;48586;50.122;18.972;2023-01-30T06:01:23;98103.00;;;-2.83;56.42
41040;BME280;48586;50.122;18.972;2023-01-30T06:03:28;98098.75;;;-2.84;56.19
41040;BME280;48586;50.122;18.972;2023-01-30T06:05:36;98104.88;;;-2.93;56.32
41040;BME280;48586;50.122;18.972;2023-01-30T06:07:41;98091.69;;;-3.00;56.78
41040;BME280;48586;50.122;18.972;2023-01-30T06:09:46;98099.72;;;-2.85;56.64
41040;BME280;48586;50.122;18.972;2023-01-30T06:11:50;98089.28;;;-2.85;56.36
41040;BME280;48586;50.122;18.972;2023-01-30T06:13:55;98106.38;;;-2.91;56.19
41040;BME280;48586;50.122;18.972;2023-01-30T06:16:01;98080.66;;;-2.86;56.20
41040;BME280;48586;50.122;18.972;2023-01-30T06:18:05;98085.41;;;-2.81;56.38
41040;BME280;48586;50.122;18.972;2023-01-30T06:20:11;98081.63;;;-2.87;55.88
41040;BME280;48586;50.122;18.972;2023-01-30T06:22:20;98081.00;;;-2.81;56.02
41040;BME280;48586;50.122;18.972;2023-01-30T06:24:25;98073.66;;;-2.85;56.16
41040;BME280;48586;50.122;18.972;2023-01-30T06:26:29;98084.78;;;-2.75;56.03
41040;BME280;48586;50.122;18.972;2023-01-30T06:28:35;98087.22;;;-2.73;55.64
41040;BME280;48586;50.122;18.972;2023-01-30T06:30:40;98096.00;;;-2.83;55.75
41040;BME280;48586;50.122;18.972;2023-01-30T06:32:48;98084.44;;;-2.72;55.82
41040;BME280;48586;50.122;18.972;2023-01-30T06:34:54;98083.63;;;-2.72;55.53
41040;BME280;48586;50.122;18.972;2023-01-30T06:36:58;98058.75;;;-2.67;55.44
41040;BME280;48586;50.122;18.972;2023-01-30T06:39:05;98057.72;;;-2.74;55.32
41040;BME280;48586;50.122;18.972;2023-01-30T06:41:10;98056.41;;;-2.78;55.44
41040;BME280;48586;50.122;18.972;2023-01-30T06:43:14;98079.22;;;-2.72;54.93
41040;BME280;48586;50.122;18.972;2023-01-30T06:45:20;98062.66;;;-2.63;55.51
41040;BME280;48586;50.122;18.972;2023-01-30T06:47:25;98086.59;;;-2.67;55.12
41040;BME280;48586;50.122;18.972;2023-01-30T06:49:30;98074.19;;;-2.73;55.01
41040;BME280;48586;50.122;18.972;2023-01-30T06:51:35;98078.44;;;-2.64;54.83
41040;BME280;48586;50.122;18.972;2023-01-30T06:53:41;98074.75;;;-2.53;55.09
41040;BME280;48586;50.122;18.972;2023-01-30T06:55:48;98072.72;;;-2.68;55.03
41040;BME280;48586;50.122;18.972;2023-01-30T06:58:01;98066.72;;;-2.60;55.00
41040;BME280;48586;50.122;18.972;2023-01-30T07:00:11;98063.66;;;-2.47;54.97
41040;BME280;48586;50.122;18.972;2023-01-30T07:02:17;98066.72;;;-2.60;54.88
41040;BME280;48586;50.122;18.972;2023-01-30T07:04:22;98054.19;;;-2.57;54.89
41040;BME280;48586;50.122;18.972;2023-01-30T07:06:28;98071.97;;;-2.52;54.66
41040;BME280;48586;50.122;18.972;2023-01-30T07:08:32;98052.59;;;-2.41;54.89
41040;BME280;48586;50.122;18.972;2023-01-30T07:10:40;98051.13;;;-2.44;54.96
41040;BME280;48586;50.122;18.972;2023-01-30T07:12:48;98060.91;;;-2.54;54.57
41040;BME280;48586;50.122;18.972;2023-01-30T07:14:54;98080.44;;;-2.50;54.92
41040;BME280;48586;50.122;18.972;2023-01-30T07:16:59;98073.38;;;-2.74;54.95
41040;BME280;48586;50.122;18.972;2023-01-30T07:19:05;98042.28;;;-2.59;54.77
41040;BME280;48586;50.122;18.972;2023-01-30T07:21:09;98054.84;;;-2.55;55.11
41040;BME280;48586;50.122;18.972;2023-01-30T07:23:15;98036.72;;;-2.64;55.09
41040;BME280;48586;50.122;18.972;2023-01-30T07:25:23;98034.31;;;-2.58;54.98
41040;BME280;48586;50.122;18.972;2023-01-30T07:27:29;98026.66;;;-2.51;55.17
41040;BME280;48586;50.122;18.972;2023-01-30T07:29:37;98024.06;;;-2.43;54.94
41040;BME280;48586;50.122;18.972;2023-01-30T07:31:44;98021.63;;;-2.52;54.51
41040;BME280;48586;50.122;18.972;2023-01-30T07:33:49;98042.31;;;-2.51;54.75
41040;BME280;48586;50.122;18.972;2023-01-30T07:35:55;98038.09;;;-2.44;54.75
41040;BME280;48586;50.122;18.972;2023-01-30T07:38:01;98030.41;;;-2.37;54.83
41040;BME280;48586;50.122;18.972;2023-01-30T07:40:07;98018.84;;;-2.43;54.55
41040;BME280;48586;50.122;18.972;2023-01-30T07:42:14;97997.00;;;-2.25;54.54
41040;BME280;48586;50.122;18.972;2023-01-30T07:44:20;98019.16;;;-2.38;54.59
41040;BME280;48586;50.122;18.972;2023-01-30T07:46:28;98014.78;;;-2.37;54.60
41040;BME280;48586;50.122;18.972;2023-01-30T07:48:36;98020.16;;;-2.31;54.73
41040;BME280;48586;50.122;18.972;2023-01-30T07:50:42;98016.56;;;-2.30;54.29
41040;BME280;48586;50.122;18.972;2023-01-30T07:52:48;98038.06;;;-2.52;54.88
41040;BME280;48586;50.122;18.972;2023-01-30T07:54:54;98015.44;;;-2.43;54.69
41040;BME280;48586;50.122;18.972;2023-01-30T07:57:00;98034.66;;;-2.44;54.85
41040;BME280;48586;50.122;18.972;2023-01-30T07:59:05;98007.75;;;-2.28;54.75
41040;BME280;48586;50.122;18.972;2023-01-30T08:01:10;98021.97;;;-2.23;54.47
41040;BME280;48586;50.122;18.972;2023-01-30T08:03:18;98003.53;;;-2.21;54.63
41040;BME280;48586;50.122;18.972;2023-01-30T08:05:22;98022.28;;;-2.26;54.29
41040;BME280;48586;50.122;18.972;2023-01-30T08:07:27;98015.75;;;-2.30;54.57
41040;BME280;48586;50.122;18.972;2023-01-30T08:09:33;98000.59;;;-2.26;54.66
41040;BME280;48586;50.122;18.972;2023-01-30T08:11:38;98014.94;;;-2.31;54.67
41040;BME280;48586;50.122;18.972;2023-01-30T08:13:43;98027.03;;;-2.21;54.38
41040;BME280;48586;50.122;18.972;2023-01-30T08:15:49;97998.00;;;-2.35;54.51
41040;BME280;48586;50.122;18.972;2023-01-30T08:17:55;98008.75;;;-2.38;55.03
41040;BME280;48586;50.122;18.972;2023-01-30T08:20:04;98001.25;;;-2.33;54.74
41040;BME280;48586;50.122;18.972;2023-01-30T08:22:10;97999.63;;;-2.34;54.84
41040;BME280;48586;50.122;18.972;2023-01-30T08:24:15;97977.44;;;-2.21;54.85
41040;BME280;48586;50.122;18.972;2023-01-30T08:26:21;97964.72;;;-2.16;54.73
41040;BME280;48586;50.122;18.972;2023-01-30T08:28:27;97969.44;;;-2.20;54.64
41040;BME280;48586;50.122;18.972;2023-01-30T08:30:34;98012.34;;;-2.22;54.94
41040;BME280;48586;50.122;18.972;2023-01-30T08:32:38;97963.75;;;-2.23;54.78
41040;BME280;48586;50.122;18.972;2023-01-30T08:34:44;97964.06;;;-2.02;54.86
41040;BME280;48586;50.122;18.972;2023-01-30T08:36:51;97941.41;;;-2.01;54.69
41040;BME280;48586;50.122;18.972;2023-01-30T08:38:56;97951.66;;;-1.92;54.43
41040;BME280;48586;50.122;18.972;2023-01-30T08:41:05;97981.03;;;-1.98;54.23
41040;BME280;48586;50.122;18.972;2023-01-30T08:43:11;97959.16;;;-1.97;54.51
41040;BME280;48586;50.122;18.972;2023-01-30T08:45:16;97974.16;;;-1.91;54.46
41040;BME280;48586;50.122;18.972;2023-01-30T08:47:22;97961.75;;;-1.81;54.31
41040;BME280;48586;50.122;18.972;2023-01-30T08:49:26;97955.38;;;-1.78;54.32
41040;BME280;48586;50.122;18.972;2023-01-30T08:51:32;97948.16;;;-1.68;54.47
41040;BME280;48586;50.122;18.972;2023-01-30T08:53:41;97970.53;;;-1.73;54.08
41040;BME280;48586;50.122;18.972;2023-01-30T08:55:48;97952.09;;;-1.72;54.35
41040;BME280;48586;50.122;18.972;2023-01-30T08:57:56;97993.72;;;-1.78;54.49
41040;BME280;48586;50.122;18.972;2023-01-30T09:00:02;97980.66;;;-1.70;54.77
41040;BME280;48586;50.122;18.972;2023-01-30T09:02:09;97969.41;;;-1.71;54.44
41040;BME280;48586;50.122;18.972;2023-01-30T09:04:15;97953.06;;;-1.65;54.19
41040;BME280;48586;50.122;18.972;2023-01-30T09:06:20;97967.06;;;-1.58;54.34
41040;BME280;48586;50.122;18.972;2023-01-30T09:08:25;97965.78;;;-1.62;54.46
41040;BME280;48586;50.122;18.972;2023-01-30T09:10:32;97956.16;;;-1.69;54.47
41040;BME280;48586;50.122;18.972;2023-01-30T09:12:43;97947.69;;;-1.63;54.29
41040;BME280;48586;50.122;18.972;2023-01-30T09:14:48;97954.88;;;-1.73;54.55
41040;BME280;48586;50.122;18.972;2023-01-30T09:16:56;97935.06;;;-1.60;54.51
41040;BME280;48586;50.122;18.972;2023-01-30T09:19:03;97937.34;;;-1.48;54.32
41040;BME280;48586;50.122;18.972;2023-01-30T09:21:09;97932.47;;;-1.68;54.22
41040;BME280;48586;50.122;18.972;2023-01-30T09:23:16;97939.19;;;-1.73;54.86
41040;BME280;48586;50.122;18.972;2023-01-30T09:25:22;97935.91;;;-1.59;54.47
41040;BME280;48586;50.122;18.972;2023-01-30T09:27:29;97916.66;;;-1.58;54.41
41040;BME280;48586;50.122;18.972;2023-01-30T09:29:33;97931.97;;;-1.55;54.31
41040;BME280;48586;50.122;18.972;2023-01-30T09:31:40;97934.13;;;-1.59;54.42
41040;BME280;48586;50.122;18.972;2023-01-30T09:33:44;97921.03;;;-1.50;54.51
41040;BME280;48586;50.122;18.972;2023-01-30T09:35:50;97909.09;;;-1.45;54.24
41040;BME280;48586;50.122;18.972;2023-01-30T09:37:55;97925.41;;;-1.51;54.32
41040;BME280;48586;50.122;18.972;2023-01-30T09:40:02;97904.53;;;-1.51;54.67
41040;BME280;48586;50.122;18.972;2023-01-30T09:42:44;97903.41;;;-1.57;54.57
41040;BME280;48586;50.122;18.972;2023-01-30T09:45:28;97888.28;;;-1.69;54.96
41040;BME280;48586;50.122;18.972;2023-01-30T09:48:02;97902.63;;;-1.65;54.96
41040;BME280;48586;50.122;18.972;2023-01-30T09:50:29;97912.44;;;-1.67;55.35
41040;BME280;48586;50.122;18.972;2023-01-30T09:52:57;97871.94;;;-1.63;55.16
41040;BME280;48586;50.122;18.972;2023-01-30T09:55:17;97875.84;;;-1.59;55.66
41040;BME280;48586;50.122;18.972;2023-01-30T09:57:25;97878.09;;;-1.56;55.12
41040;BME280;48586;50.122;18.972;2023-01-30T09:59:44;97889.72;;;-1.59;55.10
41040;BME280;48586;50.122;18.972;2023-01-30T10:02:03;97848.03;;;-1.52;55.06
41040;BME280;48586;50.122;18.972;2023-01-30T10:04:32;97868.88;;;-1.36;54.92
41040;BME280;48586;50.122;18.972;2023-01-30T10:06:50;97873.50;;;-1.46;55.63
41040;BME280;48586;50.122;18.972;2023-01-30T10:09:12;97848.81;;;-1.43;56.09
41040;BME280;48586;50.122;18.972;2023-01-30T10:11:42;97846.97;;;-1.35;56.29
41040;BME280;48586;50.122;18.972;2023-01-30T10:17:03;97837.78;;;-1.53;57.41
41040;BME280;48586;50.122;18.972;2023-01-30T10:19:45;97821.69;;;-1.42;57.70
41040;BME280;48586;50.122;18.972;2023-01-30T10:22:14;97844.09;;;-1.48;58.04
41040;BME280;48586;50.122;18.972;2023-01-30T10:24:49;97838.84;;;-1.40;58.19
41040;BME280;48586;50.122;18.972;2023-01-30T10:27:03;97819.50;;;-1.31;58.39
41040;BME280;48586;50.122;18.972;2023-01-30T10:29:18;97824.75;;;-1.31;59.00
41040;BME280;48586;50.122;18.972;2023-01-30T10:31:40;97823.91;;;-1.54;59.71
41040;BME280;48586;50.122;18.972;2023-01-30T10:33:57;97810.97;;;-1.47;60.27
41040;BME280;48586;50.122;18.972;2023-01-30T10:36:10;97814.75;;;-1.50;60.16
41040;BME280;48586;50.122;18.972;2023-01-30T10:38:24;97809.06;;;-1.53;61.02
41040;BME280;48586;50.122;18.972;2023-01-30T10:40:40;97830.31;;;-1.65;61.66
41040;BME280;48586;50.122;18.972;2023-01-30T10:42:58;97804.50;;;-1.60;61.86
41040;BME280;48586;50.122;18.972;2023-01-30T10:45:15;97804.41;;;-1.74;62.13
41040;BME280;48586;50.122;18.972;2023-01-30T10:47:46;97792.84;;;-1.72;62.47
41040;BME280;48586;50.122;18.972;2023-01-30T10:50:13;97783.44;;;-1.58;62.24
41040;BME280;48586;50.122;18.972;2023-01-30T10:52:29;97794.94;;;-1.67;61.98
41040;BME280;48586;50.122;18.972;2023-01-30T10:54:56;97784.16;;;-1.72;62.15
41040;BME280;48586;50.122;18.972;2023-01-30T10:57:17;97771.53;;;-1.61;61.86
41040;BME280;48586;50.122;18.972;2023-01-30T10:59:48;97794.00;;;-1.51;61.12
41040;BME280;48586;50.122;18.972;2023-01-30T11:02:14;97774.91;;;-1.52;61.33
41040;BME280;48586;50.122;18.972;2023-01-30T11:04:30;97781.09;;;-1.45;61.42
41040;BME280;48586;50.122;18.972;2023-01-30T11:06:46;97777.81;;;-1.47;61.08
41040;BME280;48586;50.122;18.972;2023-01-30T11:08:54;97768.59;;;-1.35;60.67
41040;BME280;48586;50.122;18.972;2023-01-30T11:11:01;97773.19;;;-1.37;60.42
41040;BME280;48586;50.122;18.972;2023-01-30T11:13:31;97766.56;;;-1.47;60.37
41040;BME280;48586;50.122;18.972;2023-01-30T11:15:39;97766.78;;;-1.34;60.56
41040;BME280;48586;50.122;18.972;2023-01-30T11:17:44;97754.78;;;-1.43;61.01
41040;BME280;48586;50.122;18.972;2023-01-30T11:20:06;97750.53;;;-1.44;61.03
41040;BME280;48586;50.122;18.972;2023-01-30T11:22:15;97749.97;;;-1.32;60.91